sensor_id;sensor_type;location;lat;lon;timestamp;P1;durP1;ratioP1;P2;durP2;ratioP2
66886;SDS011;67239;51.680;5.976;2023-05-16T00:01:59;11.95;;;2.45;;
66886;SDS011;67239;51.680;5.976;2023-05-16T00:04:26;14.05;;;2.50;;
66886;SDS011;67239;51.680;5.976;2023-05-16T00:06:53;10.98;;;2.45;;
66886;SDS011;67239;51.680;5.976;2023-05-16T00:09:20;15.85;;;2.83;;
66886;SDS011;67239;51.680;5.976;2023-05-16T00:11:48;9.23;;;2.22;;
66886;SDS011;67239;51.680;5.976;2023-05-16T00:14:15;14.27;;;2.63;;
66886;SDS011;67239;51.680;5.976;2023-05-16T00:16:42;11.60;;;2.58;;
66886;SDS011;67239;51.680;5.976;2023-05-16T00:19:09;12.93;;;2.78;;
66886;SDS011;67239;51.680;5.976;2023-05-16T00:21:39;10.45;;;2.20;;
66886;SDS011;67239;51.680;5.976;2023-05-16T00:24:06;12.13;;;2.83;;
66886;SDS011;67239;51.680;5.976;2023-05-16T00:26:33;12.55;;;2.78;;
66886;SDS011;67239;51.680;5.976;2023-05-16T00:29:00;10.10;;;2.78;;
66886;SDS011;67239;51.680;5.976;2023-05-16T00:31:29;13.80;;;2.60;;
66886;SDS011;67239;51.680;5.976;2023-05-16T00:33:56;14.63;;;2.22;;
66886;SDS011;67239;51.680;5.976;2023-05-16T00:36:23;13.82;;;2.58;;
66886;SDS011;67239;51.680;5.976;2023-05-16T00:38:50;11.00;;;2.70;;
66886;SDS011;67239;51.680;5.976;2023-05-16T00:41:17;14.13;;;2.72;;
66886;SDS011;67239;51.680;5.976;2023-05-16T00:43:45;10.52;;;2.40;;
66886;SDS011;67239;51.680;5.976;2023-05-16T00:46:12;8.57;;;2.40;;
66886;SDS011;67239;51.680;5.976;2023-05-16T00:48:39;12.13;;;2.38;;
66886;SDS011;67239;51.680;5.976;2023-05-16T00:51:06;10.30;;;2.13;;
66886;SDS011;67239;51.680;5.976;2023-05-16T00:53:35;17.90;;;2.63;;
66886;SDS011;67239;51.680;5.976;2023-05-16T00:56:03;14.90;;;2.97;;
66886;SDS011;67239;51.680;5.976;2023-05-16T00:58:34;11.48;;;2.72;;
66886;SDS011;67239;51.680;5.976;2023-05-16T01:01:03;15.05;;;2.55;;
66886;SDS011;67239;51.680;5.976;2023-05-16T01:03:30;11.60;;;2.22;;
66886;SDS011;67239;51.680;5.976;2023-05-16T01:05:58;10.07;;;2.05;;
66886;SDS011;67239;51.680;5.976;2023-05-16T01:08:25;17.23;;;2.63;;
66886;SDS011;67239;51.680;5.976;2023-05-16T01:11:07;12.20;;;2.00;;
66886;SDS011;67239;51.680;5.976;2023-05-16T01:14:16;11.23;;;2.38;;
66886;SDS011;67239;51.680;5.976;2023-05-16T01:17:06;14.40;;;2.30;;
66886;SDS011;67239;51.680;5.976;2023-05-16T01:20:11;10.82;;;2.65;;
66886;SDS011;67239;51.680;5.976;2023-05-16T01:23:05;15.57;;;2.65;;
66886;SDS011;67239;51.680;5.976;2023-05-16T01:25:55;14.15;;;2.00;;
66886;SDS011;67239;51.680;5.976;2023-05-16T01:28:37;12.02;;;1.98;;
66886;SDS011;67239;51.680;5.976;2023-05-16T01:31:05;10.73;;;2.10;;
66886;SDS011;67239;51.680;5.976;2023-05-16T01:33:32;16.60;;;2.65;;
66886;SDS011;67239;51.680;5.976;2023-05-16T01:47:08;13.45;;;2.28;;
66886;SDS011;67239;51.680;5.976;2023-05-16T01:49:43;11.05;;;2.13;;
66886;SDS011;67239;51.680;5.976;2023-05-16T01:55:29;9.90;;;2.42;;
66886;SDS011;67239;51.680;5.976;2023-05-16T01:58:09;7.65;;;1.75;;
66886;SDS011;67239;51.680;5.976;2023-05-16T02:00:39;10.63;;;2.22;;
66886;SDS011;67239;51.680;5.976;2023-05-16T02:03:07;9.88;;;1.98;;
66886;SDS011;67239;51.680;5.976;2023-05-16T02:05:35;15.40;;;2.38;;
66886;SDS011;67239;51.680;5.976;2023-05-16T02:08:02;13.30;;;2.13;;
66886;SDS011;67239;51.680;5.976;2023-05-16T02:10:30;12.23;;;2.50;;
66886;SDS011;67239;51.680;5.976;2023-05-16T02:12:58;13.52;;;2.35;;
66886;SDS011;67239;51.680;5.976;2023-05-16T02:15:25;10.60;;;2.45;;
66886;SDS011;67239;51.680;5.976;2023-05-16T02:17:53;10.07;;;1.90;;
66886;SDS011;67239;51.680;5.976;2023-05-16T02:20:20;13.98;;;2.10;;
66886;SDS011;67239;51.680;5.976;2023-05-16T02:22:47;10.85;;;2.15;;
66886;SDS011;67239;51.680;5.976;2023-05-16T02:25:15;15.77;;;2.40;;
66886;SDS011;67239;51.680;5.976;2023-05-16T02:27:43;12.48;;;2.75;;
66886;SDS011;67239;51.680;5.976;2023-05-16T02:30:10;14.48;;;2.60;;
66886;SDS011;67239;51.680;5.976;2023-05-16T02:32:38;9.85;;;2.47;;
66886;SDS011;67239;51.680;5.976;2023-05-16T02:35:07;12.07;;;2.17;;
66886;SDS011;67239;51.680;5.976;2023-05-16T02:37:34;16.13;;;3.15;;
66886;SDS011;67239;51.680;5.976;2023-05-16T02:40:02;11.02;;;2.42;;
66886;SDS011;67239;51.680;5.976;2023-05-16T02:42:35;11.18;;;2.28;;
66886;SDS011;67239;51.680;5.976;2023-05-16T02:45:02;12.50;;;2.50;;
66886;SDS011;67239;51.680;5.976;2023-05-16T02:47:30;15.93;;;2.20;;
66886;SDS011;67239;51.680;5.976;2023-05-16T02:49:58;13.27;;;2.15;;
66886;SDS011;67239;51.680;5.976;2023-05-16T02:52:25;13.50;;;2.10;;
66886;SDS011;67239;51.680;5.976;2023-05-16T02:54:52;13.38;;;2.22;;
66886;SDS011;67239;51.680;5.976;2023-05-16T02:57:40;19.50;;;2.80;;
66886;SDS011;67239;51.680;5.976;2023-05-16T03:00:11;14.52;;;2.40;;
66886;SDS011;67239;51.680;5.976;2023-05-16T03:02:41;15.05;;;2.58;;
66886;SDS011;67239;51.680;5.976;2023-05-16T03:05:09;14.48;;;2.65;;
66886;SDS011;67239;51.680;5.976;2023-05-16T03:07:37;20.48;;;3.30;;
66886;SDS011;67239;51.680;5.976;2023-05-16T03:10:05;18.67;;;2.45;;
66886;SDS011;67239;51.680;5.976;2023-05-16T03:12:33;18.00;;;2.38;;
66886;SDS011;67239;51.680;5.976;2023-05-16T03:15:00;18.70;;;2.90;;
66886;SDS011;67239;51.680;5.976;2023-05-16T03:17:28;15.90;;;3.13;;
66886;SDS011;67239;51.680;5.976;2023-05-16T03:19:56;15.27;;;2.90;;
66886;SDS011;67239;51.680;5.976;2023-05-16T03:22:23;17.77;;;2.55;;
66886;SDS011;67239;51.680;5.976;2023-05-16T03:24:50;13.80;;;2.33;;
66886;SDS011;67239;51.680;5.976;2023-05-16T03:27:17;16.08;;;2.78;;
66886;SDS011;67239;51.680;5.976;2023-05-16T03:29:44;15.20;;;3.03;;
66886;SDS011;67239;51.680;5.976;2023-05-16T03:32:11;16.40;;;2.70;;
66886;SDS011;67239;51.680;5.976;2023-05-16T03:34:38;17.45;;;3.25;;
66886;SDS011;67239;51.680;5.976;2023-05-16T03:37:05;15.85;;;2.58;;
66886;SDS011;67239;51.680;5.976;2023-05-16T03:39:33;13.43;;;2.80;;
66886;SDS011;67239;51.680;5.976;2023-05-16T03:42:00;13.43;;;2.60;;
66886;SDS011;67239;51.680;5.976;2023-05-16T03:44:27;12.40;;;2.72;;
66886;SDS011;67239;51.680;5.976;2023-05-16T03:46:54;14.02;;;2.83;;
66886;SDS011;67239;51.680;5.976;2023-05-16T03:49:24;15.02;;;2.35;;
66886;SDS011;67239;51.680;5.976;2023-05-16T03:51:54;15.82;;;2.42;;
66886;SDS011;67239;51.680;5.976;2023-05-16T03:54:21;23.35;;;4.15;;
66886;SDS011;67239;51.680;5.976;2023-05-16T03:56:48;19.52;;;3.25;;
66886;SDS011;67239;51.680;5.976;2023-05-16T03:59:15;18.63;;;3.05;;
66886;SDS011;67239;51.680;5.976;2023-05-16T04:01:42;11.13;;;2.17;;
66886;SDS011;67239;51.680;5.976;2023-05-16T04:04:09;16.23;;;2.97;;
66886;SDS011;67239;51.680;5.976;2023-05-16T04:06:36;13.55;;;2.67;;
66886;SDS011;67239;51.680;5.976;2023-05-16T04:09:03;15.02;;;3.35;;
66886;SDS011;67239;51.680;5.976;2023-05-16T04:11:30;11.52;;;3.08;;
66886;SDS011;67239;51.680;5.976;2023-05-16T04:13:58;12.93;;;3.00;;
66886;SDS011;67239;51.680;5.976;2023-05-16T04:16:27;11.73;;;2.80;;
66886;SDS011;67239;51.680;5.976;2023-05-16T04:18:54;12.63;;;2.28;;
66886;SDS011;67239;51.680;5.976;2023-05-16T04:21:23;36.03;;;4.65;;
66886;SDS011;67239;51.680;5.976;2023-05-16T04:23:50;14.40;;;3.10;;
66886;SDS011;67239;51.680;5.976;2023-05-16T04:26:17;18.10;;;3.10;;
66886;SDS011;67239;51.680;5.976;2023-05-16T04:28:46;17.27;;;3.33;;
66886;SDS011;67239;51.680;5.976;2023-05-16T04:31:13;12.00;;;2.53;;
66886;SDS011;67239;51.680;5.976;2023-05-16T04:33:41;12.70;;;2.90;;
66886;SDS011;67239;51.680;5.976;2023-05-16T04:36:08;12.73;;;2.72;;
66886;SDS011;67239;51.680;5.976;2023-05-16T04:38:35;13.40;;;2.60;;
66886;SDS011;67239;51.680;5.976;2023-05-16T04:41:02;12.45;;;2.50;;
66886;SDS011;67239;51.680;5.976;2023-05-16T04:43:29;23.50;;;3.13;;
66886;SDS011;67239;51.680;5.976;2023-05-16T04:45:56;22.27;;;3.55;;
66886;SDS011;67239;51.680;5.976;2023-05-16T04:48:24;14.30;;;2.75;;
66886;SDS011;67239;51.680;5.976;2023-05-16T04:50:51;16.80;;;2.95;;
66886;SDS011;67239;51.680;5.976;2023-05-16T04:53:18;13.20;;;2.58;;
66886;SDS011;67239;51.680;5.976;2023-05-16T04:55:45;14.20;;;2.60;;
66886;SDS011;67239;51.680;5.976;2023-05-16T04:58:13;13.52;;;2.90;;
66886;SDS011;67239;51.680;5.976;2023-05-16T05:00:40;15.82;;;3.00;;
66886;SDS011;67239;51.680;5.976;2023-05-16T05:03:07;22.25;;;2.92;;
66886;SDS011;67239;51.680;5.976;2023-05-16T05:05:34;9.57;;;2.60;;
66886;SDS011;67239;51.680;5.976;2023-05-16T05:08:02;19.20;;;2.92;;
66886;SDS011;67239;51.680;5.976;2023-05-16T05:10:30;15.85;;;2.97;;
66886;SDS011;67239;51.680;5.976;2023-05-16T05:12:57;15.73;;;2.65;;
66886;SDS011;67239;51.680;5.976;2023-05-16T05:15:24;15.63;;;3.75;;
66886;SDS011;67239;51.680;5.976;2023-05-16T05:17:51;14.98;;;2.85;;
66886;SDS011;67239;51.680;5.976;2023-05-16T05:20:19;10.88;;;2.08;;
66886;SDS011;67239;51.680;5.976;2023-05-16T05:22:46;12.60;;;2.53;;
66886;SDS011;67239;51.680;5.976;2023-05-16T05:25:13;11.85;;;2.28;;
66886;SDS011;67239;51.680;5.976;2023-05-16T05:27:41;25.38;;;3.55;;
66886;SDS011;67239;51.680;5.976;2023-05-16T05:30:08;12.05;;;2.00;;
66886;SDS011;67239;51.680;5.976;2023-05-16T05:32:35;17.75;;;2.58;;
66886;SDS011;67239;51.680;5.976;2023-05-16T05:35:03;10.35;;;1.77;;
66886;SDS011;67239;51.680;5.976;2023-05-16T05:37:31;13.25;;;2.40;;
66886;SDS011;67239;51.680;5.976;2023-05-16T05:39:58;9.18;;;1.77;;
66886;SDS011;67239;51.680;5.976;2023-05-16T05:42:25;11.15;;;1.80;;
66886;SDS011;67239;51.680;5.976;2023-05-16T05:44:52;10.55;;;2.40;;
66886;SDS011;67239;51.680;5.976;2023-05-16T05:47:19;8.07;;;1.42;;
66886;SDS011;67239;51.680;5.976;2023-05-16T05:49:47;7.20;;;1.50;;
66886;SDS011;67239;51.680;5.976;2023-05-16T05:52:14;10.48;;;1.90;;
66886;SDS011;67239;51.680;5.976;2023-05-16T05:54:41;6.88;;;1.77;;
66886;SDS011;67239;51.680;5.976;2023-05-16T05:57:08;7.53;;;1.48;;
66886;SDS011;67239;51.680;5.976;2023-05-16T05:59:35;9.55;;;1.75;;
66886;SDS011;67239;51.680;5.976;2023-05-16T06:02:02;13.38;;;2.28;;
66886;SDS011;67239;51.680;5.976;2023-05-16T06:04:29;16.13;;;2.05;;
66886;SDS011;67239;51.680;5.976;2023-05-16T06:06:56;13.48;;;2.05;;
66886;SDS011;67239;51.680;5.976;2023-05-16T06:09:23;12.75;;;2.30;;
66886;SDS011;67239;51.680;5.976;2023-05-16T06:11:50;7.75;;;1.73;;
66886;SDS011;67239;51.680;5.976;2023-05-16T06:14:18;9.43;;;2.05;;
66886;SDS011;67239;51.680;5.976;2023-05-16T06:16:45;22.08;;;3.70;;
66886;SDS011;67239;51.680;5.976;2023-05-16T06:19:12;41.88;;;3.65;;
66886;SDS011;67239;51.680;5.976;2023-05-16T06:21:42;15.55;;;2.17;;
66886;SDS011;67239;51.680;5.976;2023-05-16T06:24:09;20.05;;;3.05;;
66886;SDS011;67239;51.680;5.976;2023-05-16T06:26:37;11.55;;;2.05;;
66886;SDS011;67239;51.680;5.976;2023-05-16T06:29:04;17.75;;;2.50;;
66886;SDS011;67239;51.680;5.976;2023-05-16T06:31:31;12.05;;;2.10;;
66886;SDS011;67239;51.680;5.976;2023-05-16T06:33:58;9.00;;;2.10;;
66886;SDS011;67239;51.680;5.976;2023-05-16T06:36:25;14.38;;;2.58;;
66886;SDS011;67239;51.680;5.976;2023-05-16T06:38:52;10.18;;;1.60;;
66886;SDS011;67239;51.680;5.976;2023-05-16T06:41:19;10.95;;;2.17;;
66886;SDS011;67239;51.680;5.976;2023-05-16T06:43:47;17.17;;;2.35;;
66886;SDS011;67239;51.680;5.976;2023-05-16T06:46:14;11.35;;;1.88;;
66886;SDS011;67239;51.680;5.976;2023-05-16T06:48:41;13.32;;;2.42;;
66886;SDS011;67239;51.680;5.976;2023-05-16T06:51:08;7.07;;;1.80;;
66886;SDS011;67239;51.680;5.976;2023-05-16T06:53:35;22.70;;;2.33;;
66886;SDS011;67239;51.680;5.976;2023-05-16T06:56:03;10.52;;;1.88;;
66886;SDS011;67239;51.680;5.976;2023-05-16T06:58:30;9.38;;;1.83;;
66886;SDS011;67239;51.680;5.976;2023-05-16T07:00:57;10.63;;;1.98;;
66886;SDS011;67239;51.680;5.976;2023-05-16T07:03:24;11.43;;;1.80;;
66886;SDS011;67239;51.680;5.976;2023-05-16T07:05:51;9.77;;;1.88;;
66886;SDS011;67239;51.680;5.976;2023-05-16T07:08:19;6.78;;;1.52;;
66886;SDS011;67239;51.680;5.976;2023-05-16T07:10:46;16.67;;;2.05;;
66886;SDS011;67239;51.680;5.976;2023-05-16T07:13:13;10.80;;;1.92;;
66886;SDS011;67239;51.680;5.976;2023-05-16T07:15:40;9.40;;;1.90;;
66886;SDS011;67239;51.680;5.976;2023-05-16T07:18:07;11.85;;;2.15;;
66886;SDS011;67239;51.680;5.976;2023-05-16T07:20:34;14.48;;;1.77;;
66886;SDS011;67239;51.680;5.976;2023-05-16T07:23:01;11.13;;;2.85;;
66886;SDS011;67239;51.680;5.976;2023-05-16T07:25:28;8.60;;;1.90;;
66886;SDS011;67239;51.680;5.976;2023-05-16T07:27:56;8.15;;;1.50;;
66886;SDS011;67239;51.680;5.976;2023-05-16T07:30:23;9.52;;;1.55;;
66886;SDS011;67239;51.680;5.976;2023-05-16T07:32:50;17.42;;;2.45;;
66886;SDS011;67239;51.680;5.976;2023-05-16T07:35:17;7.78;;;1.27;;
66886;SDS011;67239;51.680;5.976;2023-05-16T07:37:44;10.25;;;1.52;;
66886;SDS011;67239;51.680;5.976;2023-05-16T07:40:11;15.65;;;1.90;;
66886;SDS011;67239;51.680;5.976;2023-05-16T07:42:39;11.05;;;1.50;;
66886;SDS011;67239;51.680;5.976;2023-05-16T07:45:06;12.98;;;1.40;;
66886;SDS011;67239;51.680;5.976;2023-05-16T07:47:34;5.72;;;1.30;;
66886;SDS011;67239;51.680;5.976;2023-05-16T07:50:01;9.70;;;1.48;;
66886;SDS011;67239;51.680;5.976;2023-05-16T07:52:28;6.55;;;1.20;;
66886;SDS011;67239;51.680;5.976;2023-05-16T07:54:55;12.75;;;1.58;;
66886;SDS011;67239;51.680;5.976;2023-05-16T07:57:23;10.40;;;1.20;;
66886;SDS011;67239;51.680;5.976;2023-05-16T07:59:51;7.72;;;1.27;;
66886;SDS011;67239;51.680;5.976;2023-05-16T08:02:18;8.70;;;1.50;;
66886;SDS011;67239;51.680;5.976;2023-05-16T08:04:46;8.25;;;1.10;;
66886;SDS011;67239;51.680;5.976;2023-05-16T08:07:14;5.13;;;1.50;;
66886;SDS011;67239;51.680;5.976;2023-05-16T08:09:41;41.33;;;3.63;;
66886;SDS011;67239;51.680;5.976;2023-05-16T08:12:08;10.20;;;1.25;;
66886;SDS011;67239;51.680;5.976;2023-05-16T08:14:35;9.88;;;2.20;;
66886;SDS011;67239;51.680;5.976;2023-05-16T08:17:02;10.13;;;1.58;;
66886;SDS011;67239;51.680;5.976;2023-05-16T08:19:30;8.95;;;1.60;;
66886;SDS011;67239;51.680;5.976;2023-05-16T08:21:58;9.13;;;1.42;;
66886;SDS011;67239;51.680;5.976;2023-05-16T08:24:25;7.93;;;1.63;;
66886;SDS011;67239;51.680;5.976;2023-05-16T08:26:52;4.53;;;0.90;;
66886;SDS011;67239;51.680;5.976;2023-05-16T08:29:19;3.58;;;1.00;;
66886;SDS011;67239;51.680;5.976;2023-05-16T08:31:46;7.03;;;1.00;;
66886;SDS011;67239;51.680;5.976;2023-05-16T08:34:14;4.45;;;1.00;;
66886;SDS011;67239;51.680;5.976;2023-05-16T08:36:41;6.40;;;1.10;;
66886;SDS011;67239;51.680;5.976;2023-05-16T08:39:08;5.70;;;1.05;;
66886;SDS011;67239;51.680;5.976;2023-05-16T08:41:37;4.53;;;0.80;;
66886;SDS011;67239;51.680;5.976;2023-05-16T08:44:05;7.57;;;1.13;;
66886;SDS011;67239;51.680;5.976;2023-05-16T08:46:32;8.43;;;1.02;;
66886;SDS011;67239;51.680;5.976;2023-05-16T08:49:02;4.18;;;0.82;;
66886;SDS011;67239;51.680;5.976;2023-05-16T08:51:36;5.55;;;1.00;;
66886;SDS011;67239;51.680;5.976;2023-05-16T08:54:05;7.30;;;1.30;;
66886;SDS011;67239;51.680;5.976;2023-05-16T08:56:40;5.53;;;1.10;;
66886;SDS011;67239;51.680;5.976;2023-05-16T08:59:08;11.85;;;1.92;;
66886;SDS011;67239;51.680;5.976;2023-05-16T09:01:37;5.85;;;1.02;;
66886;SDS011;67239;51.680;5.976;2023-05-16T09:04:06;15.38;;;1.60;;
66886;SDS011;67239;51.680;5.976;2023-05-16T09:06:35;5.28;;;0.90;;
66886;SDS011;67239;51.680;5.976;2023-05-16T09:09:03;8.90;;;0.93;;
66886;SDS011;67239;51.680;5.976;2023-05-16T09:11:33;5.00;;;0.93;;
66886;SDS011;67239;51.680;5.976;2023-05-16T09:16:34;6.07;;;1.00;;
66886;SDS011;67239;51.680;5.976;2023-05-16T09:19:01;9.45;;;1.30;;
66886;SDS011;67239;51.680;5.976;2023-05-16T09:21:31;4.25;;;0.80;;
66886;SDS011;67239;51.680;5.976;2023-05-16T09:24:04;6.60;;;0.88;;
66886;SDS011;67239;51.680;5.976;2023-05-16T09:26:34;5.53;;;0.80;;
66886;SDS011;67239;51.680;5.976;2023-05-16T09:29:10;5.78;;;0.82;;
66886;SDS011;67239;51.680;5.976;2023-05-16T09:34:08;6.97;;;0.90;;
66886;SDS011;67239;51.680;5.976;2023-05-16T09:36:39;3.08;;;0.57;;
66886;SDS011;67239;51.680;5.976;2023-05-16T09:39:09;3.15;;;0.60;;
66886;SDS011;67239;51.680;5.976;2023-05-16T09:41:37;4.47;;;0.70;;
66886;SDS011;67239;51.680;5.976;2023-05-16T09:44:05;3.63;;;0.50;;
66886;SDS011;67239;51.680;5.976;2023-05-16T09:46:33;3.97;;;0.68;;
66886;SDS011;67239;51.680;5.976;2023-05-16T09:49:02;4.25;;;0.77;;
66886;SDS011;67239;51.680;5.976;2023-05-16T09:51:29;4.57;;;0.50;;
66886;SDS011;67239;51.680;5.976;2023-05-16T09:53:58;14.77;;;1.50;;
66886;SDS011;67239;51.680;5.976;2023-05-16T09:56:26;7.03;;;0.70;;
66886;SDS011;67239;51.680;5.976;2023-05-16T09:58:54;7.18;;;0.80;;
66886;SDS011;67239;51.680;5.976;2023-05-16T10:01:21;8.60;;;1.08;;
66886;SDS011;67239;51.680;5.976;2023-05-16T10:03:49;6.47;;;0.85;;
66886;SDS011;67239;51.680;5.976;2023-05-16T10:06:16;2.83;;;0.75;;
66886;SDS011;67239;51.680;5.976;2023-05-16T10:08:44;7.55;;;1.00;;
66886;SDS011;67239;51.680;5.976;2023-05-16T10:11:12;5.07;;;0.85;;
66886;SDS011;67239;51.680;5.976;2023-05-16T10:13:41;7.53;;;1.30;;
66886;SDS011;67239;51.680;5.976;2023-05-16T10:16:11;3.90;;;1.00;;
66886;SDS011;67239;51.680;5.976;2023-05-16T10:18:40;2.30;;;0.68;;
66886;SDS011;67239;51.680;5.976;2023-05-16T10:21:09;6.32;;;0.85;;
66886;SDS011;67239;51.680;5.976;2023-05-16T10:23:41;5.15;;;0.90;;
66886;SDS011;67239;51.680;5.976;2023-05-16T10:26:10;6.00;;;1.00;;
66886;SDS011;67239;51.680;5.976;2023-05-16T10:28:39;6.43;;;0.80;;
66886;SDS011;67239;51.680;5.976;2023-05-16T10:31:10;5.93;;;1.00;;
66886;SDS011;67239;51.680;5.976;2023-05-16T10:33:38;5.20;;;1.20;;
66886;SDS011;67239;51.680;5.976;2023-05-16T10:36:07;6.15;;;0.93;;
66886;SDS011;67239;51.680;5.976;2023-05-16T10:38:35;3.85;;;0.90;;
66886;SDS011;67239;51.680;5.976;2023-05-16T10:41:04;7.32;;;1.05;;
66886;SDS011;67239;51.680;5.976;2023-05-16T10:43:33;5.75;;;0.93;;
66886;SDS011;67239;51.680;5.976;2023-05-16T10:46:03;6.40;;;0.70;;
66886;SDS011;67239;51.680;5.976;2023-05-16T10:48:37;4.75;;;0.85;;
66886;SDS011;67239;51.680;5.976;2023-05-16T10:53:52;5.68;;;0.70;;
66886;SDS011;67239;51.680;5.976;2023-05-16T10:56:23;4.13;;;0.82;;
66886;SDS011;67239;51.680;5.976;2023-05-16T10:58:53;12.68;;;1.40;;
66886;SDS011;67239;51.680;5.976;2023-05-16T11:06:23;8.05;;;1.33;;
66886;SDS011;67239;51.680;5.976;2023-05-16T11:17:10;8.07;;;1.17;;
66886;SDS011;67239;51.680;5.976;2023-05-16T11:19:41;10.07;;;1.05;;
66886;SDS011;67239;51.680;5.976;2023-05-16T11:24:49;4.45;;;0.70;;
66886;SDS011;67239;51.680;5.976;2023-05-16T11:32:33;4.68;;;0.80;;
66886;SDS011;67239;51.680;5.976;2023-05-16T11:35:02;17.00;;;1.13;;
66886;SDS011;67239;51.680;5.976;2023-05-16T11:37:30;4.70;;;0.80;;
66886;SDS011;67239;51.680;5.976;2023-05-16T11:39:58;8.20;;;0.90;;
66886;SDS011;67239;51.680;5.976;2023-05-16T11:42:28;27.65;;;2.38;;
66886;SDS011;67239;51.680;5.976;2023-05-16T11:45:05;11.77;;;1.17;;
66886;SDS011;67239;51.680;5.976;2023-05-16T11:47:44;5.38;;;0.82;;
66886;SDS011;67239;51.680;5.976;2023-05-16T11:50:20;5.30;;;0.70;;
66886;SDS011;67239;51.680;5.976;2023-05-16T11:52:50;15.93;;;1.73;;
66886;SDS011;67239;51.680;5.976;2023-05-16T11:55:21;6.35;;;0.85;;
66886;SDS011;67239;51.680;5.976;2023-05-16T11:58:07;6.50;;;1.13;;
66886;SDS011;67239;51.680;5.976;2023-05-16T12:00:35;9.38;;;1.20;;
66886;SDS011;67239;51.680;5.976;2023-05-16T12:03:03;10.55;;;1.25;;
66886;SDS011;67239;51.680;5.976;2023-05-16T12:05:31;5.15;;;1.00;;
66886;SDS011;67239;51.680;5.976;2023-05-16T12:08:01;5.80;;;1.23;;
66886;SDS011;67239;51.680;5.976;2023-05-16T12:10:31;7.32;;;1.10;;
66886;SDS011;67239;51.680;5.976;2023-05-16T12:13:00;5.10;;;1.00;;
66886;SDS011;67239;51.680;5.976;2023-05-16T12:15:29;2.97;;;0.70;;
66886;SDS011;67239;51.680;5.976;2023-05-16T12:17:56;19.55;;;1.27;;
66886;SDS011;67239;51.680;5.976;2023-05-16T12:20:24;7.15;;;0.90;;
66886;SDS011;67239;51.680;5.976;2023-05-16T12:22:52;5.93;;;1.10;;
66886;SDS011;67239;51.680;5.976;2023-05-16T12:25:26;15.27;;;2.05;;
66886;SDS011;67239;51.680;5.976;2023-05-16T12:27:59;9.02;;;1.27;;
66886;SDS011;67239;51.680;5.976;2023-05-16T12:30:31;5.22;;;0.90;;
66886;SDS011;67239;51.680;5.976;2023-05-16T12:32:59;2.35;;;0.82;;
66886;SDS011;67239;51.680;5.976;2023-05-16T12:35:37;6.45;;;0.95;;
66886;SDS011;67239;51.680;5.976;2023-05-16T12:38:06;3.20;;;0.80;;
66886;SDS011;67239;51.680;5.976;2023-05-16T12:40:37;4.40;;;0.70;;
66886;SDS011;67239;51.680;5.976;2023-05-16T12:43:18;3.85;;;0.80;;
66886;SDS011;67239;51.680;5.976;2023-05-16T12:45:54;5.00;;;1.05;;
66886;SDS011;67239;51.680;5.976;2023-05-16T12:48:23;3.95;;;0.73;;
66886;SDS011;67239;51.680;5.976;2023-05-16T12:51:15;3.58;;;0.85;;
66886;SDS011;67239;51.680;5.976;2023-05-16T12:53:45;5.38;;;0.93;;
66886;SDS011;67239;51.680;5.976;2023-05-16T12:56:37;8.02;;;1.10;;
66886;SDS011;67239;51.680;5.976;2023-05-16T12:59:06;4.65;;;0.80;;
66886;SDS011;67239;51.680;5.976;2023-05-16T13:01:37;3.92;;;0.77;;
66886;SDS011;67239;51.680;5.976;2023-05-16T13:04:06;6.85;;;1.00;;
66886;SDS011;67239;51.680;5.976;2023-05-16T13:06:34;14.20;;;1.45;;
66886;SDS011;67239;51.680;5.976;2023-05-16T13:09:21;4.80;;;0.85;;
66886;SDS011;67239;51.680;5.976;2023-05-16T13:11:49;5.20;;;1.33;;
66886;SDS011;67239;51.680;5.976;2023-05-16T13:14:16;4.10;;;1.00;;
66886;SDS011;67239;51.680;5.976;2023-05-16T13:16:43;5.28;;;1.00;;
66886;SDS011;67239;51.680;5.976;2023-05-16T13:19:10;11.23;;;1.15;;
66886;SDS011;67239;51.680;5.976;2023-05-16T13:21:37;11.93;;;1.70;;
66886;SDS011;67239;51.680;5.976;2023-05-16T13:24:04;20.88;;;1.92;;
66886;SDS011;67239;51.680;5.976;2023-05-16T13:26:32;2.90;;;0.80;;
66886;SDS011;67239;51.680;5.976;2023-05-16T13:28:59;6.45;;;1.05;;
66886;SDS011;67239;51.680;5.976;2023-05-16T13:31:27;9.82;;;1.20;;
66886;SDS011;67239;51.680;5.976;2023-05-16T13:33:54;2.78;;;0.70;;
66886;SDS011;67239;51.680;5.976;2023-05-16T13:36:21;6.00;;;0.77;;
66886;SDS011;67239;51.680;5.976;2023-05-16T13:38:48;6.38;;;1.20;;
66886;SDS011;67239;51.680;5.976;2023-05-16T13:41:33;9.00;;;1.02;;
66886;SDS011;67239;51.680;5.976;2023-05-16T13:44:22;7.07;;;1.88;;
66886;SDS011;67239;51.680;5.976;2023-05-16T13:47:07;5.85;;;1.05;;
66886;SDS011;67239;51.680;5.976;2023-05-16T13:49:53;7.65;;;1.17;;
66886;SDS011;67239;51.680;5.976;2023-05-16T13:52:38;8.43;;;0.95;;
66886;SDS011;67239;51.680;5.976;2023-05-16T13:55:24;10.10;;;1.02;;
66886;SDS011;67239;51.680;5.976;2023-05-16T13:58:09;2.65;;;0.65;;
66886;SDS011;67239;51.680;5.976;2023-05-16T14:00:55;8.75;;;1.45;;
66886;SDS011;67239;51.680;5.976;2023-05-16T14:03:40;6.38;;;1.20;;
66886;SDS011;67239;51.680;5.976;2023-05-16T14:06:26;5.53;;;0.75;;
66886;SDS011;67239;51.680;5.976;2023-05-16T14:09:11;9.27;;;1.10;;
66886;SDS011;67239;51.680;5.976;2023-05-16T14:11:57;4.22;;;0.90;;
66886;SDS011;67239;51.680;5.976;2023-05-16T14:14:42;19.27;;;2.10;;
66886;SDS011;67239;51.680;5.976;2023-05-16T14:17:27;9.23;;;1.17;;
66886;SDS011;67239;51.680;5.976;2023-05-16T14:20:12;5.50;;;1.25;;
66886;SDS011;67239;51.680;5.976;2023-05-16T14:22:59;6.00;;;1.30;;
66886;SDS011;67239;51.680;5.976;2023-05-16T14:25:44;10.98;;;1.60;;
66886;SDS011;67239;51.680;5.976;2023-05-16T14:28:29;7.25;;;1.00;;
66886;SDS011;67239;51.680;5.976;2023-05-16T14:31:16;13.70;;;1.50;;
66886;SDS011;67239;51.680;5.976;2023-05-16T14:34:02;3.63;;;0.70;;
66886;SDS011;67239;51.680;5.976;2023-05-16T14:36:48;7.03;;;1.27;;
66886;SDS011;67239;51.680;5.976;2023-05-16T14:39:33;7.38;;;1.20;;
66886;SDS011;67239;51.680;5.976;2023-05-16T14:42:18;10.02;;;1.20;;
66886;SDS011;67239;51.680;5.976;2023-05-16T14:45:04;5.97;;;1.15;;
66886;SDS011;67239;51.680;5.976;2023-05-16T14:47:50;7.60;;;1.48;;
66886;SDS011;67239;51.680;5.976;2023-05-16T14:50:36;11.50;;;1.15;;
66886;SDS011;67239;51.680;5.976;2023-05-16T14:53:21;10.57;;;1.60;;
66886;SDS011;67239;51.680;5.976;2023-05-16T14:56:07;4.35;;;1.10;;
66886;SDS011;67239;51.680;5.976;2023-05-16T14:58:52;10.65;;;1.30;;
66886;SDS011;67239;51.680;5.976;2023-05-16T15:01:38;11.68;;;2.10;;
66886;SDS011;67239;51.680;5.976;2023-05-16T15:04:25;8.93;;;1.10;;
66886;SDS011;67239;51.680;5.976;2023-05-16T15:07:09;8.63;;;1.30;;
66886;SDS011;67239;51.680;5.976;2023-05-16T15:09:54;11.38;;;1.25;;
66886;SDS011;67239;51.680;5.976;2023-05-16T15:12:40;7.18;;;1.27;;
66886;SDS011;67239;51.680;5.976;2023-05-16T15:15:27;6.47;;;1.20;;
66886;SDS011;67239;51.680;5.976;2023-05-16T15:18:12;4.57;;;1.10;;
66886;SDS011;67239;51.680;5.976;2023-05-16T15:20:58;5.50;;;1.00;;
66886;SDS011;67239;51.680;5.976;2023-05-16T15:23:43;8.07;;;1.17;;
66886;SDS011;67239;51.680;5.976;2023-05-16T15:26:28;6.40;;;1.10;;
66886;SDS011;67239;51.680;5.976;2023-05-16T15:29:15;11.55;;;1.50;;
66886;SDS011;67239;51.680;5.976;2023-05-16T15:32:04;6.28;;;1.00;;
66886;SDS011;67239;51.680;5.976;2023-05-16T15:34:50;7.57;;;1.30;;
66886;SDS011;67239;51.680;5.976;2023-05-16T15:37:36;7.63;;;1.50;;
66886;SDS011;67239;51.680;5.976;2023-05-16T15:40:22;8.35;;;1.35;;
66886;SDS011;67239;51.680;5.976;2023-05-16T15:43:11;10.90;;;1.33;;
66886;SDS011;67239;51.680;5.976;2023-05-16T15:45:56;8.20;;;1.30;;
66886;SDS011;67239;51.680;5.976;2023-05-16T15:48:42;6.97;;;1.30;;